Time;durP1;ratioP1;P1;durP2;ratioP2;P2;SDS_P1;SDS_P2;PMS_P1;PMS_P2;Temp;Humidity;BMP_temperature;BMP_pressure;BME280_temperature;BME280_humidity;BME280_pressure;Samples;Min_cycle;Max_cycle;Signal;HPM_P1;HPM_P2
2023/12/26 00:00:25;;;;;;;4.13;1.02;;;9.40;99.90;;;;;;4966945;28;20301;-69
2023/12/26 00:02:52;;;;;;;2.08;1.00;;;9.50;99.90;;;;;;4973065;28;20246;-69
2023/12/26 00:05:19;;;;;;;2.30;0.88;;;9.40;99.90;;;;;;4968020;28;20728;-69
2023/12/26 00:07:47;;;;;;;2.13;0.98;;;9.50;99.90;;;;;;4961850;28;20332;-69
2023/12/26 00:10:15;;;;;;;4.85;1.30;;;9.40;99.90;;;;;;4968704;28;20896;-69
2023/12/26 00:12:43;;;;;;;3.40;0.98;;;9.50;99.90;;;;;;4939421;28;20242;-69
2023/12/26 00:15:10;;;;;;;1.20;0.90;;;9.50;99.90;;;;;;4972602;28;20207;-69
2023/12/26 00:17:37;;;;;;;1.48;0.93;;;9.90;99.90;;;;;;4980026;28;20234;-69
2023/12/26 00:20:05;;;;;;;3.13;1.45;;;9.50;99.90;;;;;;4970971;28;20764;-69
2023/12/26 00:22:34;;;;;;;3.55;1.20;;;9.40;99.90;;;;;;4969033;28;20213;-69
2023/12/26 00:25:03;;;;;;;2.85;1.50;;;9.50;99.90;;;;;;4970560;28;20225;-69
2023/12/26 00:27:30;;;;;;;2.42;1.20;;;9.40;99.90;;;;;;4962621;28;20195;-69
2023/12/26 00:29:57;;;;;;;1.50;1.00;;;9.90;99.90;;;;;;4968133;28;20513;-69
2023/12/26 00:32:24;;;;;;;2.65;1.15;;;9.50;99.90;;;;;;4966510;28;20225;-69
2023/12/26 00:34:51;;;;;;;1.63;1.30;;;9.50;99.90;;;;;;4968422;28;20369;-69
2023/12/26 00:37:18;;;;;;;2.30;1.17;;;9.20;99.90;;;;;;4969338;28;21156;-69
2023/12/26 00:39:45;;;;;;;1.27;1.17;;;9.50;99.90;;;;;;4970450;28;20270;-69
2023/12/26 00:42:14;;;;;;;1.95;0.90;;;9.40;99.90;;;;;;4974247;28;21005;-69
2023/12/26 00:44:41;;;;;;;3.33;0.90;;;9.50;99.90;;;;;;4948107;28;20632;-69
2023/12/26 00:47:08;;;;;;;0.98;0.80;;;9.40;99.90;;;;;;4971518;28;20601;-69
2023/12/26 00:49:34;;;;;;;1.80;0.90;;;9.50;99.90;;;;;;4973394;28;20280;-69
2023/12/26 00:52:01;;;;;;;1.17;0.93;;;9.20;99.90;;;;;;4977979;28;20306;-69
2023/12/26 00:54:28;;;;;;;0.95;0.80;;;9.50;99.90;;;;;;4981406;28;20312;-69
2023/12/26 00:56:55;;;;;;;1.92;0.73;;;9.50;99.90;;;;;;4972176;28;20968;-69
2023/12/26 00:59:23;;;;;;;4.28;1.17;;;9.50;99.90;;;;;;4947180;28;20247;-69
2023/12/26 01:01:50;;;;;;;1.73;0.80;;;9.50;99.90;;;;;;4959062;28;20306;-69
2023/12/26 01:04:19;;;;;;;1.17;0.70;;;9.50;99.90;;;;;;4980097;28;20285;-69
2023/12/26 01:06:46;;;;;;;2.17;0.68;;;9.50;99.90;;;;;;4981826;28;20195;-69
2023/12/26 01:09:13;;;;;;;1.42;0.95;;;9.50;99.90;;;;;;4974563;28;20227;-69
2023/12/26 01:11:40;;;;;;;1.05;0.82;;;9.50;99.90;;;;;;4972069;28;20277;-69
2023/12/26 01:14:07;;;;;;;0.75;0.70;;;9.50;99.90;;;;;;4951039;28;20251;-69
2023/12/26 01:16:37;;;;;;;0.73;0.68;;;9.50;99.90;;;;;;4968630;28;20300;-69
2023/12/26 01:19:04;;;;;;;1.13;1.00;;;9.50;99.90;;;;;;4983737;28;20281;-69
2023/12/26 01:21:30;;;;;;;1.63;0.80;;;9.50;99.90;;;;;;4971987;28;20802;-69
2023/12/26 01:23:58;;;;;;;0.63;0.63;;;9.50;99.90;;;;;;4980534;28;20357;-69
2023/12/26 01:26:25;;;;;;;1.10;0.60;;;9.60;99.90;;;;;;4970938;28;20221;-69
2023/12/26 01:28:52;;;;;;;1.00;0.60;;;9.50;99.90;;;;;;4950049;28;20306;-69
2023/12/26 01:31:19;;;;;;;0.75;0.65;;;9.50;99.90;;;;;;4972965;28;20736;-69
2023/12/26 01:33:47;;;;;;;0.30;0.30;;;9.50;99.90;;;;;;4976393;28;20979;-69
2023/12/26 01:36:15;;;;;;;1.13;0.68;;;9.60;99.90;;;;;;4975053;28;20319;-69
2023/12/26 01:38:41;;;;;;;0.52;0.52;;;9.50;99.90;;;;;;4974887;28;21103;-69
2023/12/26 01:41:08;;;;;;;0.80;0.50;;;9.50;99.90;;;;;;4973305;28;20294;-69
2023/12/26 01:43:35;;;;;;;0.50;0.47;;;10.30;99.90;;;;;;4983412;28;20222;-69
2023/12/26 01:46:03;;;;;;;1.48;0.45;;;9.60;99.90;;;;;;4950141;28;20290;-69
2023/12/26 01:48:31;;;;;;;0.60;0.50;;;9.50;99.90;;;;;;4970754;28;20207;-69
2023/12/26 01:51:01;;;;;;;0.20;0.20;;;9.60;99.90;;;;;;4969755;28;21194;-69
2023/12/26 01:53:28;;;;;;;0.43;0.22;;;9.50;99.90;;;;;;4984687;28;20261;-69
2023/12/26 01:55:55;;;;;;;0.57;0.50;;;9.50;99.90;;;;;;4957775;28;20253;-69
2023/12/26 01:58:22;;;;;;;1.58;0.88;;;9.80;99.90;;;;;;4980984;28;21028;-69
2023/12/26 02:00:50;;;;;;;0.50;0.40;;;9.40;99.90;;;;;;4943203;28;20250;-69
2023/12/26 02:03:17;;;;;;;1.38;0.47;;;9.50;99.90;;;;;;4976910;28;20696;-69
2023/12/26 02:05:46;;;;;;;0.98;0.52;;;9.60;99.90;;;;;;4983347;28;20972;-69
2023/12/26 02:08:15;;;;;;;0.60;0.50;;;9.60;99.90;;;;;;4974021;28;20807;-69
2023/12/26 02:10:42;;;;;;;0.35;0.30;;;9.40;99.90;;;;;;4975383;28;20296;-69
2023/12/26 02:13:09;;;;;;;0.43;0.40;;;9.40;99.90;;;;;;4969701;28;20760;-69
2023/12/26 02:15:36;;;;;;;0.35;0.35;;;9.60;99.90;;;;;;4942594;28;20357;-69
2023/12/26 02:18:03;;;;;;;0.40;0.40;;;;;;;;;;4978660;28;20222;-69
2023/12/26 02:20:30;;;;;;;0.85;0.47;;;9.60;99.90;;;;;;4967794;28;21038;-69
2023/12/26 02:22:57;;;;;;;0.30;0.30;;;9.50;99.90;;;;;;4968268;28;20309;-69
2023/12/26 02:25:26;;;;;;;0.40;0.40;;;9.50;99.90;;;;;;4975621;28;20277;-69
2023/12/26 02:27:53;;;;;;;0.35;0.35;;;9.60;99.90;;;;;;4964356;28;20227;-69
2023/12/26 02:30:23;;;;;;;1.70;0.60;;;9.60;99.90;;;;;;4946856;28;20211;-69
2023/12/26 02:32:51;;;;;;;0.82;0.40;;;9.60;99.90;;;;;;4978960;28;20344;-69
2023/12/26 02:35:19;;;;;;;0.45;0.45;;;10.00;99.90;;;;;;4974940;28;20207;-69
2023/12/26 02:37:49;;;;;;;0.38;0.38;;;9.60;99.90;;;;;;4969247;28;20319;-69
2023/12/26 02:40:16;;;;;;;0.30;0.30;;;9.60;99.90;;;;;;4982526;28;20200;-69
2023/12/26 02:42:44;;;;;;;0.73;0.50;;;9.60;99.90;;;;;;4974729;28;20322;-69
2023/12/26 02:45:12;;;;;;;2.38;0.40;;;9.60;99.90;;;;;;4968291;28;20301;-69
2023/12/26 02:47:39;;;;;;;0.75;0.30;;;9.70;99.90;;;;;;4948222;28;20721;-69
2023/12/26 02:50:07;;;;;;;0.30;0.30;;;9.60;99.90;;;;;;4982428;28;20231;-69
2023/12/26 02:52:34;;;;;;;0.20;0.20;;;;;;;;;;4961995;28;20215;-69
2023/12/26 02:55:01;;;;;;;0.40;0.40;;;9.20;99.90;;;;;;4972657;28;20655;-69
2023/12/26 02:57:28;;;;;;;0.57;0.50;;;9.60;99.90;;;;;;4968279;28;20285;-69
2023/12/26 02:59:57;;;;;;;2.20;0.47;;;;;;;;;;4964214;28;20921;-69
2023/12/26 03:02:23;;;;;;;0.60;0.50;;;9.60;99.90;;;;;;4948474;28;20313;-69
2023/12/26 03:04:51;;;;;;;1.38;0.70;;;9.70;99.90;;;;;;4982114;28;20246;-69
2023/12/26 03:07:18;;;;;;;0.40;0.38;;;9.60;99.90;;;;;;4977178;28;20206;-69
2023/12/26 03:09:45;;;;;;;2.38;0.70;;;9.60;99.90;;;;;;4969398;28;20298;-69
2023/12/26 03:12:12;;;;;;;1.38;0.45;;;;;;;;;;4965286;28;20328;-69
2023/12/26 03:14:39;;;;;;;1.35;0.73;;;9.60;99.90;;;;;;4973006;28;20357;-69
2023/12/26 03:17:07;;;;;;;2.08;0.70;;;9.50;99.90;;;;;;4943058;28;20694;-69
2023/12/26 03:19:34;;;;;;;1.10;0.70;;;9.60;99.90;;;;;;4981740;28;20202;-69
2023/12/26 03:22:01;;;;;;;2.63;0.52;;;9.50;99.90;;;;;;4971169;28;20251;-69
2023/12/26 03:24:28;;;;;;;2.28;0.60;;;9.60;99.90;;;;;;4973387;28;20282;-69
2023/12/26 03:26:55;;;;;;;1.27;0.60;;;9.60;99.90;;;;;;4982625;28;20318;-69
2023/12/26 03:29:22;;;;;;;3.17;0.73;;;9.60;99.90;;;;;;4962294;28;21190;-69
2023/12/26 03:31:50;;;;;;;3.30;0.80;;;9.60;99.90;;;;;;4982512;28;20226;-69
2023/12/26 03:34:18;;;;;;;0.57;0.40;;;9.50;99.90;;;;;;4945866;28;20246;-69
2023/12/26 03:36:46;;;;;;;2.95;1.08;;;9.60;99.90;;;;;;4978654;28;20208;-69
2023/12/26 03:39:13;;;;;;;1.90;0.50;;;9.60;99.90;;;;;;4961118;28;20325;-69
2023/12/26 03:41:40;;;;;;;1.55;0.73;;;9.50;99.90;;;;;;4982875;28;20235;-69
2023/12/26 03:44:09;;;;;;;2.22;0.70;;;9.50;99.90;;;;;;4964598;28;20288;-69
2023/12/26 03:46:36;;;;;;;5.07;0.93;;;9.50;99.90;;;;;;4976561;28;20211;-69
2023/12/26 03:49:02;;;;;;;4.35;0.70;;;9.60;99.90;;;;;;4949218;28;20637;-69
2023/12/26 03:51:31;;;;;;;0.95;0.70;;;9.50;99.90;;;;;;4980600;28;20253;-69
2023/12/26 03:53:58;;;;;;;4.88;0.90;;;9.60;99.90;;;;;;4971446;28;20337;-69
2023/12/26 03:56:29;;;;;;;4.00;1.10;;;9.50;99.90;;;;;;4978092;28;20259;-69
2023/12/26 03:58:56;;;;;;;4.72;1.00;;;9.60;99.90;;;;;;4972209;28;20356;-69
2023/12/26 04:01:23;;;;;;;6.55;1.17;;;9.60;99.90;;;;;;4969423;28;20354;-69
2023/12/26 04:03:50;;;;;;;4.75;1.40;;;9.50;99.90;;;;;;4947855;28;20257;-69
2023/12/26 04:06:17;;;;;;;3.72;1.00;;;9.50;99.90;;;;;;4969263;28;20213;-69
2023/12/26 04:08:46;;;;;;;1.90;0.90;;;9.50;99.90;;;;;;4974776;28;20214;-69
2023/12/26 04:11:13;;;;;;;3.70;1.13;;;9.40;99.90;;;;;;4982914;28;20230;-69
2023/12/26 04:13:40;;;;;;;6.03;1.35;;;9.50;99.90;;;;;;4983581;28;20377;-69
2023/12/26 04:16:07;;;;;;;4.35;1.25;;;10.40;99.90;;;;;;4966667;28;20207;-69
2023/12/26 04:18:35;;;;;;;2.10;0.88;;;9.40;99.90;;;;;;4944553;28;20332;-69
2023/12/26 04:21:02;;;;;;;4.45;1.50;;;9.30;99.90;;;;;;4980234;28;20341;-69
2023/12/26 04:23:28;;;;;;;3.67;0.88;;;9.30;99.90;;;;;;4971642;28;20298;-69
2023/12/26 04:25:57;;;;;;;1.67;0.90;;;9.40;99.90;;;;;;4968493;28;20235;-69
2023/12/26 04:28:24;;;;;;;9.25;1.80;;;9.30;99.90;;;;;;4975009;28;20740;-69
2023/12/26 04:30:51;;;;;;;5.72;1.80;;;9.30;99.90;;;;;;4972541;28;20224;-69
2023/12/26 04:33:18;;;;;;;13.45;1.80;;;9.30;99.90;;;;;;4968962;28;20326;-69
2023/12/26 04:35:45;;;;;;;6.00;1.50;;;9.30;99.90;;;;;;4949338;28;21173;-69
2023/12/26 04:38:12;;;;;;;4.20;1.17;;;9.30;99.90;;;;;;4967109;28;20275;-69
2023/12/26 04:40:39;;;;;;;4.53;1.50;;;9.30;99.90;;;;;;4970732;28;20199;-69
2023/12/26 04:43:08;;;;;;;5.05;1.63;;;9.30;99.90;;;;;;4978890;28;20734;-69
2023/12/26 04:45:38;;;;;;;5.88;1.55;;;9.30;99.90;;;;;;4971023;28;20673;-69
2023/12/26 04:48:07;;;;;;;8.07;1.77;;;9.30;99.90;;;;;;4969423;28;20206;-69
2023/12/26 04:50:34;;;;;;;2.50;1.23;;;9.30;99.90;;;;;;4948808;28;20215;-69
2023/12/26 04:53:02;;;;;;;4.50;1.20;;;;;;;;;;4977436;28;20209;-69
2023/12/26 04:55:28;;;;;;;6.78;2.15;;;8.60;99.90;;;;;;4969436;28;20716;-69
2023/12/26 04:57:55;;;;;;;5.43;1.60;;;9.40;99.90;;;;;;4979814;28;20285;-69
2023/12/26 05:00:24;;;;;;;9.32;2.33;;;9.20;99.90;;;;;;4969258;28;23318;-69
2023/12/26 05:02:51;;;;;;;6.45;1.50;;;9.20;99.90;;;;;;4971602;28;20294;-69
2023/12/26 05:05:18;;;;;;;11.15;1.63;;;9.20;99.90;;;;;;4966859;28;20243;-69
2023/12/26 05:07:45;;;;;;;5.60;1.48;;;9.10;99.90;;;;;;4948291;28;20250;-69
2023/12/26 05:10:12;;;;;;;11.77;1.58;;;9.10;99.90;;;;;;4980682;28;20231;-69
2023/12/26 05:12:39;;;;;;;10.35;2.15;;;9.20;99.90;;;;;;4972012;28;20344;-69
2023/12/26 05:15:06;;;;;;;9.00;1.98;;;9.10;99.90;;;;;;4975348;28;20819;-69
2023/12/26 05:17:34;;;;;;;3.42;1.50;;;9.10;99.90;;;;;;4963422;28;21028;-69
2023/12/26 05:20:01;;;;;;;5.53;1.50;;;9.10;99.90;;;;;;4982260;28;20266;-69
2023/12/26 05:22:28;;;;;;;9.40;1.75;;;;;;;;;;4930697;28;20316;-69
2023/12/26 05:24:55;;;;;;;4.75;1.60;;;9.10;99.90;;;;;;4972644;28;20855;-69
2023/12/26 05:27:22;;;;;;;4.45;1.55;;;9.00;99.90;;;;;;4964228;28;20294;-69
2023/12/26 05:29:49;;;;;;;10.70;2.13;;;9.00;99.90;;;;;;4974389;28;20886;-69
2023/12/26 05:32:16;;;;;;;5.95;1.40;;;9.00;99.90;;;;;;4973376;28;20385;-69
2023/12/26 05:34:48;;;;;;;5.18;1.40;;;8.90;99.90;;;;;;4970025;28;20720;-69
2023/12/26 05:37:15;;;;;;;8.98;1.77;;;9.00;99.90;;;;;;4977261;28;20337;-69
2023/12/26 05:39:43;;;;;;;8.20;1.77;;;8.90;99.90;;;;;;4947944;28;20746;-68
2023/12/26 05:42:10;;;;;;;6.78;1.42;;;8.90;99.90;;;;;;4978564;28;20671;-69
2023/12/26 05:44:37;;;;;;;6.85;1.55;;;8.90;99.90;;;;;;4967067;28;20294;-69
2023/12/26 05:47:05;;;;;;;11.43;2.13;;;8.80;99.90;;;;;;4989698;28;20234;-69
2023/12/26 05:49:32;;;;;;;7.35;1.65;;;8.80;99.90;;;;;;4963878;28;20246;-69
2023/12/26 05:52:00;;;;;;;5.63;1.33;;;8.90;99.90;;;;;;4984213;28;20337;-69
2023/12/26 05:54:27;;;;;;;9.80;1.63;;;9.10;99.90;;;;;;4945174;28;20235;-69
2023/12/26 05:56:54;;;;;;;12.38;2.17;;;8.80;99.90;;;;;;4980091;28;20897;-68
2023/12/26 05:59:21;;;;;;;13.35;2.30;;;9.00;99.90;;;;;;4970421;28;20747;-69
2023/12/26 06:01:48;;;;;;;6.28;1.83;;;8.70;99.90;;;;;;4980585;28;20392;-69
2023/12/26 06:04:15;;;;;;;15.68;2.40;;;8.70;99.90;;;;;;4971660;28;20354;-69
2023/12/26 06:06:42;;;;;;;11.18;1.55;;;8.60;99.90;;;;;;4977838;28;20815;-69
2023/12/26 06:09:10;;;;;;;16.27;2.35;;;8.60;99.90;;;;;;4977605;28;20231;-68
2023/12/26 06:11:37;;;;;;;10.35;2.13;;;8.40;99.90;;;;;;4941718;28;20322;-69
2023/12/26 06:14:05;;;;;;;7.55;1.50;;;8.50;99.90;;;;;;4981074;28;20226;-68
2023/12/26 06:16:32;;;;;;;4.22;1.63;;;8.80;99.90;;;;;;4964181;28;20202;-69
2023/12/26 06:18:59;;;;;;;9.98;1.58;;;8.50;99.90;;;;;;4983473;28;20208;-69
2023/12/26 06:21:25;;;;;;;12.60;2.22;;;8.40;99.90;;;;;;4970592;28;20747;-69
2023/12/26 06:23:52;;;;;;;13.30;2.28;;;8.40;99.90;;;;;;4982062;28;20248;-68
2023/12/26 06:26:20;;;;;;;15.07;2.00;;;8.50;99.90;;;;;;4948398;28;20309;-68
2023/12/26 06:28:47;;;;;;;8.57;1.77;;;8.40;99.90;;;;;;4979383;28;21498;-69
2023/12/26 06:31:15;;;;;;;9.30;1.85;;;8.50;99.90;;;;;;4969660;28;20397;-68
2023/12/26 06:33:42;;;;;;;11.48;1.88;;;8.50;99.90;;;;;;4971472;28;20235;-69
2023/12/26 06:36:09;;;;;;;10.88;2.20;;;8.50;99.90;;;;;;4957239;28;20365;-69
2023/12/26 06:38:36;;;;;;;7.97;1.58;;;8.50;99.90;;;;;;4982788;28;20231;-68
2023/12/26 06:41:04;;;;;;;7.53;1.90;;;8.50;99.90;;;;;;4933088;28;20357;-69
2023/12/26 06:43:33;;;;;;;10.85;1.90;;;8.50;99.90;;;;;;4979324;28;20842;-69
2023/12/26 06:46:00;;;;;;;10.68;1.50;;;;;;;;;;4967264;28;20270;-69
2023/12/26 06:48:27;;;;;;;7.25;1.60;;;8.50;99.90;;;;;;4980055;28;20242;-69
2023/12/26 06:50:54;;;;;;;8.90;1.70;;;8.50;99.90;;;;;;4965451;28;20289;-68
2023/12/26 06:53:21;;;;;;;8.38;1.48;;;8.50;99.90;;;;;;4978161;28;20620;-69
2023/12/26 06:55:48;;;;;;;11.02;2.10;;;10.00;99.90;;;;;;4979007;28;20254;-68
2023/12/26 06:58:15;;;;;;;10.20;2.22;;;8.60;99.90;;;;;;4952479;28;20211;-69
2023/12/26 07:00:44;;;;;;;8.38;1.60;;;8.50;99.90;;;;;;4963039;28;20226;-68
2023/12/26 07:03:11;;;;;;;10.55;1.98;;;8.60;99.90;;;;;;4974888;28;20295;-68
2023/12/26 07:05:38;;;;;;;11.43;1.83;;;8.50;99.90;;;;;;4967291;28;21028;-69
2023/12/26 07:08:06;;;;;;;8.93;1.52;;;8.60;99.90;;;;;;4981729;28;20320;-69
2023/12/26 07:10:33;;;;;;;12.37;2.03;;;8.60;99.90;;;;;;4972717;28;20270;-69
2023/12/26 07:13:00;;;;;;;9.93;1.85;;;8.60;99.90;;;;;;4943533;28;20385;-69
2023/12/26 07:15:28;;;;;;;13.77;2.00;;;8.60;99.90;;;;;;4969377;28;20262;-69
2023/12/26 07:17:56;;;;;;;7.95;1.80;;;8.60;99.90;;;;;;4978302;28;20208;-69
2023/12/26 07:20:23;;;;;;;10.07;2.17;;;8.50;99.90;;;;;;4974425;28;20591;-69
2023/12/26 07:22:50;;;;;;;6.03;1.98;;;8.60;99.90;;;;;;4968510;28;20208;-68
2023/12/26 07:25:17;;;;;;;8.05;1.50;;;8.80;99.90;;;;;;4966793;28;20207;-68
2023/12/26 07:27:44;;;;;;;7.05;1.77;;;8.60;99.90;;;;;;4943082;28;20309;-69
2023/12/26 07:30:11;;;;;;;8.10;1.75;;;8.60;99.90;;;;;;4974011;28;20230;-68
2023/12/26 07:32:38;;;;;;;11.05;2.33;;;8.60;99.90;;;;;;4972907;28;20209;-68
2023/12/26 07:35:07;;;;;;;6.28;1.83;;;8.60;99.90;;;;;;4972793;28;20394;-69
2023/12/26 07:37:34;;;;;;;10.20;1.65;;;8.60;99.90;;;;;;4964085;28;20866;-69
2023/12/26 07:40:01;;;;;;;9.93;2.22;;;8.60;99.90;;;;;;4984670;28;20206;-68
2023/12/26 07:42:28;;;;;;;7.47;1.75;;;8.70;99.90;;;;;;4947388;28;20724;-68
2023/12/26 07:44:55;;;;;;;8.02;1.77;;;8.20;99.90;;;;;;4983412;28;20234;-68
2023/12/26 07:47:22;;;;;;;7.78;2.63;;;;;;;;;;4968603;28;20230;-69
2023/12/26 07:49:50;;;;;;;11.20;2.53;;;8.60;99.90;;;;;;4974372;28;20270;-69
2023/12/26 07:52:18;;;;;;;9.57;2.05;;;8.50;99.90;;;;;;4965472;28;20747;-68
2023/12/26 07:54:45;;;;;;;6.05;1.45;;;8.60;99.90;;;;;;4979891;28;20277;-68
2023/12/26 07:57:12;;;;;;;6.57;2.08;;;8.60;99.90;;;;;;4979853;28;20288;-68
2023/12/26 07:59:39;;;;;;;6.78;1.50;;;8.60;99.90;;;;;;4946159;28;20744;-69
2023/12/26 08:02:06;;;;;;;11.63;1.85;;;8.60;99.90;;;;;;4986068;28;20305;-68
2023/12/26 08:04:33;;;;;;;8.23;1.65;;;8.60;99.90;;;;;;4967170;28;20217;-69
2023/12/26 08:07:00;;;;;;;5.78;1.50;;;8.60;99.90;;;;;;4969791;28;20298;-68
2023/12/26 08:09:28;;;;;;;6.82;1.52;;;9.00;99.90;;;;;;4968287;28;20254;-68
2023/12/26 08:11:55;;;;;;;8.35;1.75;;;8.60;99.90;;;;;;4982119;28;20317;-68
2023/12/26 08:14:22;;;;;;;8.05;1.50;;;8.90;99.90;;;;;;4944358;28;23440;-69
2023/12/26 08:16:49;;;;;;;4.88;1.85;;;8.70;99.90;;;;;;4969093;28;20313;-68
2023/12/26 08:19:16;;;;;;;11.40;2.17;;;8.50;99.90;;;;;;4962493;28;20713;-69
2023/12/26 08:21:43;;;;;;;7.90;2.20;;;8.60;99.90;;;;;;4966341;28;20212;-68
2023/12/26 08:24:10;;;;;;;7.40;1.63;;;8.60;99.90;;;;;;4969098;28;20345;-68
2023/12/26 08:26:38;;;;;;;8.48;1.50;;;8.70;99.90;;;;;;4981110;28;20661;-68
2023/12/26 08:29:05;;;;;;;6.68;1.60;;;8.70;99.90;;;;;;4982180;28;20206;-69
2023/12/26 08:31:32;;;;;;;7.05;1.58;;;8.60;99.90;;;;;;4944832;28;20308;-68
2023/12/26 08:33:59;;;;;;;7.88;1.83;;;8.70;99.90;;;;;;4982911;28;20262;-68
2023/12/26 08:36:26;;;;;;;7.25;1.70;;;8.60;99.90;;;;;;4968654;28;20355;-68
2023/12/26 08:38:53;;;;;;;5.43;1.00;;;8.70;99.90;;;;;;4965448;28;20261;-68
2023/12/26 08:41:20;;;;;;;4.80;1.20;;;8.70;99.90;;;;;;4976594;28;20265;-69
2023/12/26 08:43:48;;;;;;;9.70;1.40;;;8.70;99.90;;;;;;4978694;28;20231;-68
2023/12/26 08:46:16;;;;;;;6.47;1.50;;;;;;;;;;4941090;28;20409;-68
2023/12/26 08:48:43;;;;;;;5.35;1.60;;;8.70;99.90;;;;;;4981928;28;20245;-69
2023/12/26 08:51:10;;;;;;;6.93;1.55;;;8.30;99.90;;;;;;4962365;28;20589;-69
2023/12/26 08:53:37;;;;;;;8.88;2.13;;;8.70;99.90;;;;;;4977671;28;20952;-68
2023/12/26 08:56:04;;;;;;;9.75;2.42;;;;;;;;;;4974309;28;20229;-69
2023/12/26 08:58:32;;;;;;;7.63;1.50;;;8.70;99.90;;;;;;4972945;28;20313;-68
2023/12/26 09:01:01;;;;;;;13.13;2.50;;;8.70;99.90;;;;;;4932150;28;20206;-68
2023/12/26 09:03:29;;;;;;;6.05;1.58;;;8.70;99.90;;;;;;4966911;28;20313;-68
2023/12/26 09:05:56;;;;;;;6.40;1.73;;;8.70;99.90;;;;;;4959788;28;20230;-68
2023/12/26 09:08:23;;;;;;;8.32;1.90;;;8.70;99.90;;;;;;4957729;28;20239;-68
2023/12/26 09:10:50;;;;;;;3.63;1.65;;;8.70;99.90;;;;;;4977211;28;20199;-68
2023/12/26 09:13:20;;;;;;;6.95;1.83;;;8.70;99.90;;;;;;4965636;28;20398;-68
2023/12/26 09:15:48;;;;;;;9.60;1.85;;;8.70;99.90;;;;;;4982044;28;20619;-69
2023/12/26 09:18:16;;;;;;;13.10;1.90;;;9.30;99.90;;;;;;4943925;28;20218;-68
2023/12/26 09:20:43;;;;;;;4.50;1.65;;;8.70;99.90;;;;;;4967637;28;20746;-68
2023/12/26 09:23:13;;;;;;;11.23;1.80;;;8.70;99.90;;;;;;4962118;28;20211;-69
2023/12/26 09:25:40;;;;;;;7.32;2.05;;;8.80;99.90;;;;;;4956566;28;20226;-68
2023/12/26 09:28:09;;;;;;;8.30;2.75;;;8.70;99.90;;;;;;4962428;28;20210;-68
2023/12/26 09:30:36;;;;;;;2.70;1.42;;;8.80;99.90;;;;;;4951963;28;23599;-68
2023/12/26 09:33:04;;;;;;;9.00;2.03;;;8.80;99.90;;;;;;4948095;28;20322;-68
2023/12/26 09:35:32;;;;;;;8.23;2.10;;;8.80;99.90;;;;;;4977344;28;20818;-68
2023/12/26 09:37:59;;;;;;;7.35;1.50;;;8.80;99.90;;;;;;4953234;28;20253;-69
2023/12/26 09:40:26;;;;;;;6.15;1.60;;;;;;;;;;4960835;28;20254;-68
2023/12/26 09:42:58;;;;;;;14.35;2.03;;;8.80;99.90;;;;;;4972823;28;20223;-68
2023/12/26 09:45:27;;;;;;;5.20;1.15;;;8.80;99.90;;;;;;4961765;28;20208;-69
2023/12/26 09:47:54;;;;;;;7.50;2.33;;;8.80;99.90;;;;;;4936703;28;21251;-68
2023/12/26 09:50:21;;;;;;;11.52;2.28;;;8.80;99.90;;;;;;4974152;28;20254;-68
2023/12/26 09:52:53;;;;;;;8.57;2.17;;;8.80;99.90;;;;;;4962320;28;20293;-68
2023/12/26 09:55:20;;;;;;;12.90;1.85;;;8.80;99.90;;;;;;4967363;28;20634;-68
2023/12/26 09:57:47;;;;;;;8.82;1.73;;;9.20;99.90;;;;;;4970107;28;20721;-68
2023/12/26 10:00:15;;;;;;;9.25;2.17;;;9.20;99.90;;;;;;4969136;28;20235;-68
2023/12/26 10:02:43;;;;;;;11.55;2.15;;;9.10;99.90;;;;;;4935139;28;22017;-68
2023/12/26 10:05:10;;;;;;;7.85;1.70;;;9.00;99.90;;;;;;4978759;28;20213;-68
2023/12/26 10:07:37;;;;;;;12.27;2.03;;;9.00;99.90;;;;;;4967829;28;20199;-69
2023/12/26 10:10:07;;;;;;;7.40;1.60;;;9.00;99.90;;;;;;4964264;28;20294;-68
2023/12/26 10:12:35;;;;;;;9.77;1.80;;;8.80;99.90;;;;;;4957019;28;20449;-68
2023/12/26 10:15:03;;;;;;;9.52;2.72;;;9.00;99.90;;;;;;4972735;28;20207;-68
2023/12/26 10:17:30;;;;;;;7.05;1.40;;;8.90;99.90;;;;;;4970926;28;20327;-68
2023/12/26 10:19:58;;;;;;;6.78;1.38;;;8.90;99.90;;;;;;4950086;28;20207;-68
2023/12/26 10:22:25;;;;;;;10.52;2.17;;;9.00;99.90;;;;;;4978130;28;20200;-68
2023/12/26 10:24:52;;;;;;;6.22;1.42;;;9.00;99.90;;;;;;4963993;28;20202;-68
2023/12/26 10:27:20;;;;;;;4.63;1.08;;;9.00;99.90;;;;;;4962618;28;20206;-68
2023/12/26 10:29:51;;;;;;;8.05;2.22;;;8.90;99.90;;;;;;4969329;28;20210;-68
2023/12/26 10:32:18;;;;;;;8.43;1.73;;;8.90;99.90;;;;;;4962578;28;20202;-68
2023/12/26 10:34:45;;;;;;;7.72;2.78;;;8.90;99.90;;;;;;4942990;28;20231;-68
2023/12/26 10:37:12;;;;;;;9.60;2.05;;;8.90;99.90;;;;;;4976668;28;20227;-68
2023/12/26 10:39:39;;;;;;;7.28;1.33;;;8.90;99.90;;;;;;4960549;28;20837;-68
2023/12/26 10:42:07;;;;;;;8.15;2.00;;;8.90;99.90;;;;;;4983126;28;20437;-68
2023/12/26 10:44:36;;;;;;;6.97;1.60;;;8.90;99.90;;;;;;4956461;28;20655;-68
2023/12/26 10:47:03;;;;;;;6.03;1.42;;;8.90;99.90;;;;;;4979149;28;20203;-68
2023/12/26 10:49:30;;;;;;;7.65;2.00;;;8.90;99.90;;;;;;4978046;28;20313;-68
2023/12/26 10:52:01;;;;;;;14.00;2.15;;;9.00;99.90;;;;;;4937375;28;20689;-68
2023/12/26 10:54:28;;;;;;;7.97;1.85;;;8.90;99.90;;;;;;4968209;28;20234;-68
2023/12/26 10:56:58;;;;;;;8.00;2.28;;;8.90;99.90;;;;;;4971650;28;20657;-68
2023/12/26 10:59:26;;;;;;;6.73;1.90;;;;;;;;;;4981815;28;20252;-68
2023/12/26 11:01:53;;;;;;;14.23;1.88;;;9.00;99.90;;;;;;4944788;28;20222;-68
2023/12/26 11:04:19;;;;;;;6.43;1.73;;;9.10;99.90;;;;;;4972593;28;20359;-68
2023/12/26 11:06:46;;;;;;;8.52;1.85;;;9.10;99.90;;;;;;4942310;28;20260;-68
2023/12/26 11:09:12;;;;;;;9.20;1.88;;;9.00;99.90;;;;;;4973994;28;20226;-68
2023/12/26 11:11:40;;;;;;;6.40;1.50;;;8.00;99.90;;;;;;4962914;28;20341;-68
2023/12/26 11:14:07;;;;;;;7.07;1.98;;;9.00;99.90;;;;;;4975290;28;20715;-68
2023/12/26 11:16:35;;;;;;;9.23;2.75;;;9.00;99.90;;;;;;4966734;28;20227;-68
2023/12/26 11:19:03;;;;;;;9.25;1.70;;;8.90;99.90;;;;;;4969901;28;20226;-68
2023/12/26 11:21:31;;;;;;;12.50;1.80;;;8.90;99.90;;;;;;4944031;28;20459;-68
2023/12/26 11:23:58;;;;;;;11.00;2.03;;;8.90;99.90;;;;;;4975867;28;20801;-68
2023/12/26 11:26:25;;;;;;;7.28;1.60;;;9.00;99.90;;;;;;4966534;28;20322;-68
2023/12/26 11:28:52;;;;;;;5.35;1.30;;;9.30;99.90;;;;;;4981837;28;20671;-68
2023/12/26 11:31:18;;;;;;;10.02;1.95;;;9.20;99.90;;;;;;4961193;28;20222;-68
2023/12/26 11:33:44;;;;;;;9.73;2.00;;;8.80;99.90;;;;;;4967744;28;20242;-68
2023/12/26 11:36:12;;;;;;;8.77;1.77;;;9.20;99.90;;;;;;4944766;28;20231;-68
2023/12/26 11:38:38;;;;;;;6.50;2.13;;;9.20;99.90;;;;;;4974196;28;20222;-68
2023/12/26 11:41:07;;;;;;;6.13;1.63;;;9.10;99.90;;;;;;4969537;28;20227;-68
2023/12/26 11:43:34;;;;;;;9.50;1.83;;;9.10;99.90;;;;;;4978525;28;20239;-68
2023/12/26 11:46:00;;;;;;;6.53;1.83;;;8.70;99.90;;;;;;4968273;28;20237;-68
2023/12/26 11:48:26;;;;;;;7.28;1.98;;;9.10;99.90;;;;;;4969816;28;20206;-68
2023/12/26 11:50:53;;;;;;;7.57;2.23;;;9.00;99.90;;;;;;4936801;28;21390;-68
2023/12/26 11:53:20;;;;;;;9.65;1.85;;;9.10;99.90;;;;;;4979802;28;20775;-67
2023/12/26 11:55:46;;;;;;;7.43;1.98;;;9.10;99.90;;;;;;4952517;28;20210;-68
2023/12/26 11:58:13;;;;;;;9.27;1.63;;;9.10;99.90;;;;;;4970222;28;20223;-67
2023/12/26 12:00:39;;;;;;;9.13;1.98;;;9.40;99.90;;;;;;4967203;28;20199;-67
2023/12/26 12:03:05;;;;;;;8.57;1.88;;;9.10;99.90;;;;;;4961895;28;20223;-67
2023/12/26 12:05:32;;;;;;;18.00;2.10;;;9.10;99.90;;;;;;4967926;28;20216;-67
2023/12/26 12:08:10;;;;;;;9.50;1.92;;;9.10;99.90;;;;;;4938783;28;20241;-67
2023/12/26 12:10:38;;;;;;;10.70;2.08;;;9.10;99.90;;;;;;4976077;28;20249;-68
2023/12/26 12:13:04;;;;;;;5.70;1.63;;;9.10;99.90;;;;;;4964131;28;20238;-67
2023/12/26 12:15:31;;;;;;;7.72;1.63;;;9.00;99.90;;;;;;4975419;28;20215;-67
2023/12/26 12:17:58;;;;;;;7.80;1.55;;;9.10;99.90;;;;;;4961785;28;20334;-67
2023/12/26 12:20:24;;;;;;;6.22;1.50;;;9.00;99.90;;;;;;4968654;28;20222;-67
2023/12/26 12:23:29;;;;;;;8.75;2.17;;;9.00;99.90;;;;;;4938286;28;20455;-67
2023/12/26 12:26:32;;;;;;;12.13;1.83;;;8.90;99.90;;;;;;4975133;28;20229;-67
2023/12/26 12:29:36;;;;;;;8.35;1.92;;;9.00;99.90;;;;;;4961576;28;20225;-67
2023/12/26 12:32:39;;;;;;;12.65;1.90;;;9.50;99.90;;;;;;4969847;28;20226;-67
2023/12/26 12:35:43;;;;;;;10.57;1.90;;;9.00;99.90;;;;;;4963148;28;20230;-67
2023/12/26 12:38:47;;;;;;;12.32;2.00;;;9.00;99.90;;;;;;4922961;28;20230;-67
2023/12/26 12:41:50;;;;;;;9.25;2.17;;;9.10;99.90;;;;;;4978118;28;20222;-67
2023/12/26 12:44:54;;;;;;;5.53;1.20;;;9.10;99.90;;;;;;4959956;28;20221;-67
2023/12/26 12:47:58;;;;;;;8.93;1.70;;;9.10;99.90;;;;;;4968572;28;20221;-67
2023/12/26 12:51:01;;;;;;;6.00;1.83;;;9.00;99.90;;;;;;4972542;28;21176;-67
2023/12/26 12:54:05;;;;;;;7.97;1.90;;;9.10;99.90;;;;;;4944085;28;20207;-67
2023/12/26 12:57:09;;;;;;;9.43;1.70;;;9.00;99.90;;;;;;4977278;28;20234;-67
2023/12/26 13:00:13;;;;;;;6.22;1.98;;;9.00;99.90;;;;;;4957361;28;20222;-67
2023/12/26 13:03:16;;;;;;;4.43;1.73;;;8.90;99.90;;;;;;4976758;28;20221;-67
2023/12/26 13:06:20;;;;;;;8.68;1.73;;;8.90;99.90;;;;;;4963234;28;20227;-67